createdAt,value
2022-12-24T00:00:38.220Z,-2.3
2022-12-24T00:06:06.310Z,-2.4
2022-12-24T00:11:44.211Z,-2.5
2022-12-24T00:17:23.111Z,-2.7
2022-12-24T00:22:47.080Z,-2.8
2022-12-24T00:28:10.131Z,-2.8
2022-12-24T00:33:40.762Z,-2.9
2022-12-24T00:39:18.513Z,-2.9
2022-12-24T00:44:56.144Z,-3
2022-12-24T00:50:38.226Z,-3.1
2022-12-24T00:56:16.066Z,-3.2
2022-12-24T01:01:38.822Z,-3.3
2022-12-24T01:07:18.704Z,-3.4
2022-12-24T01:12:56.264Z,-3.4
2022-12-24T01:18:34.821Z,-3.5
2022-12-24T01:24:12.713Z,-3.5
2022-12-24T01:29:50.519Z,-3.5
2022-12-24T01:35:13.983Z,-3.6
2022-12-24T01:40:21.651Z,-3.6
2022-12-24T01:45:48.709Z,-3.6
2022-12-24T01:56:34.165Z,-3.8
2022-12-24T02:02:12.736Z,-3.9
2022-12-24T02:07:51.726Z,-4
2022-12-24T02:13:29.959Z,-4
2022-12-24T02:18:37.268Z,-4.1
2022-12-24T02:24:00.071Z,-4.2
2022-12-24T02:29:38.437Z,-4.2
2022-12-24T02:35:00.293Z,-4.3
2022-12-24T02:40:30.289Z,-4.3
2022-12-24T02:46:29.449Z,-4.4
2022-12-24T02:52:07.389Z,-4.5
2022-12-24T02:57:29.853Z,-4.6
2022-12-24T03:02:54.158Z,-4.6
2022-12-24T03:08:16.453Z,-4.7
2022-12-24T03:13:54.188Z,-4.8
2022-12-24T03:19:17.412Z,-4.8
2022-12-24T03:24:55.545Z,-4.8
2022-12-24T03:30:33.512Z,-4.8
2022-12-24T03:35:56.307Z,-4.8
2022-12-24T03:41:33.792Z,-4.7
2022-12-24T03:47:12.312Z,-4.7
2022-12-24T03:52:49.891Z,-4.5
2022-12-24T03:58:27.599Z,-4.4
2022-12-24T04:03:50.300Z,-4.3
2022-12-24T04:09:13.576Z,-4.1
2022-12-24T04:14:52.729Z,-3.9
2022-12-24T04:20:31.088Z,-3.9
2022-12-24T04:26:09.318Z,-3.9
2022-12-24T04:31:31.253Z,-3.8
2022-12-24T04:47:44.208Z,-3.8
2022-12-24T04:53:22.406Z,-3.8
2022-12-24T04:58:29.162Z,-3.8
2022-12-24T05:04:23.680Z,-3.9
2022-12-24T05:10:16.659Z,-3.9
2022-12-24T05:16:02.295Z,-4
2022-12-24T05:21:40.222Z,-4.1
2022-12-24T05:27:17.849Z,-4.1
2022-12-24T05:32:41.744Z,-4.2
2022-12-24T05:38:05.072Z,-4.2
2022-12-24T05:43:47.267Z,-4.2
2022-12-24T05:49:11.869Z,-4.1
2022-12-24T05:54:51.544Z,-3.9
2022-12-24T06:00:13.996Z,-3.8
2022-12-24T06:11:20.795Z,-3.5
2022-12-24T06:17:04.492Z,-3.4
2022-12-24T06:22:42.835Z,-3.3
2022-12-24T06:28:05.749Z,-3.1
2022-12-24T06:33:52.429Z,-2.9
2022-12-24T06:39:30.739Z,-2.7
2022-12-24T06:45:09.051Z,-2.6
2022-12-24T06:50:47.366Z,-2.3
2022-12-24T06:56:25.624Z,-1.8
2022-12-24T07:01:54.455Z,-0.4
2022-12-24T07:07:33.393Z,5.8
2022-12-24T07:13:12.916Z,12.4
2022-12-24T07:18:59.012Z,16
2022-12-24T07:24:37.802Z,15.4
2022-12-24T07:30:16.115Z,14.6
2022-12-24T07:36:12.466Z,13.9
2022-12-24T07:41:58.069Z,14.3
2022-12-24T07:47:36.509Z,15.7
2022-12-24T07:53:14.927Z,15.9
2022-12-24T07:58:53.578Z,16.4
2022-12-24T08:04:38.179Z,17.4
2022-12-24T08:10:16.684Z,18.2
2022-12-24T08:15:54.453Z,18.6
2022-12-24T08:21:33.297Z,19.1
2022-12-24T08:27:11.374Z,19.4
2022-12-24T08:32:56.583Z,19.3
2022-12-24T08:38:34.468Z,19
2022-12-24T08:44:13.409Z,18.9
2022-12-24T08:49:56.463Z,18.4
2022-12-24T08:55:34.587Z,18
2022-12-24T09:01:18.280Z,17.9
2022-12-24T09:07:03.423Z,17.8
2022-12-24T09:12:46.358Z,18.1
2022-12-24T09:18:30.441Z,18.4
2022-12-24T09:23:57.792Z,18.4
2022-12-24T09:29:20.725Z,18.5
2022-12-24T09:35:04.472Z,18.4
2022-12-24T09:40:42.618Z,18.6
2022-12-24T09:46:10.387Z,19.1
2022-12-24T09:51:52.280Z,20.6
2022-12-24T09:57:15.111Z,22.7
2022-12-24T10:02:39.230Z,23.2
2022-12-24T10:08:18.190Z,23.2
2022-12-24T10:13:46.240Z,23
2022-12-24T10:19:24.493Z,23.1
2022-12-24T10:25:07.155Z,24.1
2022-12-24T10:30:50.987Z,25.6
2022-12-24T10:36:29.215Z,25.7
2022-12-24T10:41:51.734Z,25.3
2022-12-24T10:47:40.459Z,24.9
2022-12-24T10:53:22.443Z,24.3
2022-12-24T10:59:00.658Z,23.8
2022-12-24T11:04:42.665Z,23.2
2022-12-24T11:10:08.613Z,22.8
2022-12-24T11:16:27.708Z,22.3
2022-12-24T11:22:13.123Z,22.2
2022-12-24T11:27:58.622Z,23.1
2022-12-24T11:33:42.455Z,26
2022-12-24T11:39:20.514Z,31.6
2022-12-24T11:45:00.279Z,37.9
2022-12-24T11:50:55.254Z,37.6
2022-12-24T11:56:40.582Z,36.6
2022-12-24T12:02:27.376Z,35.9
2022-12-24T12:07:50.209Z,35.1
2022-12-24T12:13:31.763Z,34.6
2022-12-24T12:19:14.900Z,33.9
2022-12-24T12:24:53.689Z,32.8
2022-12-24T12:30:32.568Z,31.8
2022-12-24T12:36:18.142Z,30.6
2022-12-24T12:42:03.236Z,29.8
2022-12-24T12:47:31.472Z,29.2
2022-12-24T12:53:17.918Z,28.3
2022-12-24T12:59:00.089Z,27.3
2022-12-24T13:04:27.283Z,26.1
2022-12-24T13:10:13.336Z,25.1
2022-12-24T13:15:55.942Z,23.9
2022-12-24T13:21:40.076Z,22.8
2022-12-24T13:27:25.525Z,21.6
2022-12-24T13:33:04.740Z,20.5
2022-12-24T13:38:46.910Z,19.3
2022-12-24T13:44:47.274Z,18.3
2022-12-24T13:50:09.534Z,17.3
2022-12-24T13:55:51.684Z,16.3
2022-12-24T14:01:37.130Z,15.2
2022-12-24T14:07:07.279Z,14.1
2022-12-24T14:12:50.929Z,13.4
2022-12-24T14:18:29.714Z,12.6
2022-12-24T14:24:09.418Z,11.8
2022-12-24T14:29:47.986Z,11.1
2022-12-24T14:35:26.713Z,10.4
2022-12-24T14:40:49.813Z,9.9
2022-12-24T14:46:32.305Z,9.3
2022-12-24T14:52:24.470Z,8.9
2022-12-24T14:58:58.503Z,8.5
2022-12-24T15:04:40.590Z,8.3
2022-12-24T15:10:23.577Z,8
2022-12-24T15:15:51.899Z,7.8
2022-12-24T15:21:20.785Z,7.7
2022-12-24T15:26:43.548Z,7.5
2022-12-24T15:32:29.425Z,7.4
2022-12-24T15:38:07.543Z,7.3
2022-12-24T15:43:30.331Z,7.1
2022-12-24T15:48:39.104Z,7.1
2022-12-24T15:53:56.144Z,6.9
2022-12-24T15:59:24.610Z,6.9
2022-12-24T16:04:34.453Z,6.8
2022-12-24T16:09:57.238Z,6.7
2022-12-24T16:15:11.616Z,6.7
2022-12-24T16:20:52.756Z,6.6
2022-12-24T16:26:31.310Z,6.6
2022-12-24T16:32:13.720Z,6.5
2022-12-24T16:37:51.559Z,6.5
2022-12-24T16:43:21.104Z,6.4
2022-12-24T16:49:02.302Z,6.4
2022-12-24T16:54:46.444Z,6.4
2022-12-24T16:59:54.033Z,6.4
